BAW43C EGKK-KMCO
Flight info
| Callsign | BAW43C |
|---|---|
| Flight time | N/A |
| Altitude | 36000 |
| Route | NOVMA1X NOVMA L620 SAM N19 ADKIK DCT MOPAT DCT DOGAL/M083F370 NATC RIKAL/N0466F380 N572A TOPPS/N0468F400 DCT BEEKN Q97 KALDA Q131 WAALT Y289 BAHAA DCT HIBAC ALYNA4 |
| Aircraft | B772/H-SDE1E3FGHIJ3J5J6M1M2P2RWXYZ/LB1D1 |
Departure
| Time | 2026-04-18 10:06 |
|---|---|
| Airport | London Gatwick Airport (EGKK) |
Arrival
| Time | N/A |
|---|---|
| Airport | Orlando International Airport (KMCO) |
| Time | Latitude | Longitude | Altitude | Speed | Heading |
|---|---|---|---|---|---|
| 2026-04-18 09:38 | 51.15585 | -0.16906 | 208 ft | 0 kts | 168° |
| 2026-04-18 09:58 | 51.15586 | -0.16906 | 208 ft | 1 kts | 167° |
| 2026-04-18 09:58 | 51.15610 | -0.16914 | 213 ft | 4 kts | 173° |
| 2026-04-18 09:59 | 51.15636 | -0.16916 | 220 ft | 4 kts | 189° |
| 2026-04-18 09:59 | 51.15656 | -0.16906 | 218 ft | 4 kts | 226° |
| 2026-04-18 09:59 | 51.15663 | -0.16891 | 220 ft | 0 kts | 258° |
| 2026-04-18 10:02 | 51.15654 | -0.16956 | 218 ft | 13 kts | 258° |
| 2026-04-18 10:02 | 51.15635 | -0.17094 | 208 ft | 13 kts | 258° |
| 2026-04-18 10:02 | 51.15615 | -0.17231 | 217 ft | 13 kts | 256° |
| 2026-04-18 10:02 | 51.15556 | -0.17313 | 218 ft | 13 kts | 181° |
| 2026-04-18 10:03 | 51.15469 | -0.17287 | 216 ft | 13 kts | 168° |
| 2026-04-18 10:03 | 51.15382 | -0.17257 | 214 ft | 13 kts | 168° |
| 2026-04-18 10:03 | 51.15296 | -0.17222 | 216 ft | 13 kts | 159° |
| 2026-04-18 10:03 | 51.15220 | -0.17149 | 218 ft | 13 kts | 144° |
| 2026-04-18 10:04 | 51.15200 | -0.17091 | 215 ft | 6 kts | 91° |
| 2026-04-18 10:04 | 51.15203 | -0.17024 | 218 ft | 6 kts | 78° |
| 2026-04-18 10:04 | 51.15216 | -0.16926 | 220 ft | 14 kts | 78° |
| 2026-04-18 10:04 | 51.15208 | -0.16816 | 219 ft | 10 kts | 129° |
| 2026-04-18 10:05 | 51.15143 | -0.16796 | 214 ft | 10 kts | 200° |
| 2026-04-18 10:05 | 51.15113 | -0.16869 | 217 ft | 0 kts | 256° |
| 2026-04-18 10:06 | 51.15086 | -0.17058 | 217 ft | 45 kts | 257° |
| 2026-04-18 10:06 | 51.14960 | -0.17980 | 212 ft | 123 kts | 258° |
| 2026-04-18 10:06 | 51.14734 | -0.19658 | 303 ft | 178 kts | 259° |
| 2026-04-18 10:06 | 51.14459 | -0.21528 | 1332 ft | 167 kts | 259° |
| 2026-04-18 10:07 | 51.14204 | -0.23357 | 2050 ft | 178 kts | 259° |
| 2026-04-18 10:07 | 51.13924 | -0.25425 | 2334 ft | 201 kts | 261° |
| 2026-04-18 10:07 | 51.13719 | -0.26926 | 2467 ft | 218 kts | 260° |
| 2026-04-18 10:07 | 51.13263 | -0.30260 | 2998 ft | 238 kts | 259° |
| 2026-04-18 10:08 | 51.13023 | -0.31984 | 3485 ft | 240 kts | 259° |
| 2026-04-18 10:08 | 51.12663 | -0.34597 | 4188 ft | 242 kts | 259° |
| 2026-04-18 10:08 | 51.12301 | -0.37206 | 4977 ft | 242 kts | 258° |
| 2026-04-18 10:08 | 51.11934 | -0.39841 | 5608 ft | 246 kts | 258° |
| 2026-04-18 10:09 | 51.11554 | -0.42534 | 6204 ft | 251 kts | 256° |
| 2026-04-18 10:09 | 51.10934 | -0.45150 | 6795 ft | 255 kts | 245° |
| 2026-04-18 10:09 | 51.10118 | -0.47683 | 7439 ft | 257 kts | 243° |
| 2026-04-18 10:09 | 51.09286 | -0.50201 | 8127 ft | 257 kts | 244° |
| 2026-04-18 10:10 | 51.08477 | -0.52703 | 8748 ft | 258 kts | 244° |
| 2026-04-18 10:10 | 51.07663 | -0.55270 | 9403 ft | 259 kts | 244° |
| 2026-04-18 10:10 | 51.06853 | -0.57847 | 10020 ft | 262 kts | 244° |
| 2026-04-18 10:10 | 51.06037 | -0.60448 | 10517 ft | 267 kts | 244° |
| 2026-04-18 10:11 | 51.05245 | -0.63211 | 10645 ft | 283 kts | 252° |
| 2026-04-18 10:11 | 51.04775 | -0.66345 | 10783 ft | 301 kts | 258° |
| 2026-04-18 10:11 | 51.04382 | -0.69729 | 10937 ft | 321 kts | 258° |
| 2026-04-18 10:11 | 51.03951 | -0.73279 | 11363 ft | 332 kts | 258° |
| 2026-04-18 10:12 | 51.03493 | -0.76891 | 11987 ft | 338 kts | 257° |
| 2026-04-18 10:12 | 51.03009 | -0.80551 | 12805 ft | 340 kts | 257° |
| 2026-04-18 10:12 | 51.02512 | -0.84239 | 13659 ft | 341 kts | 257° |
| 2026-04-18 10:12 | 51.02011 | -0.87933 | 14423 ft | 344 kts | 257° |
| 2026-04-18 10:13 | 51.01504 | -0.91666 | 15098 ft | 347 kts | 257° |
| 2026-04-18 10:13 | 51.00959 | -0.95438 | 15756 ft | 350 kts | 256° |
| 2026-04-18 10:13 | 51.00398 | -0.99161 | 16411 ft | 352 kts | 256° |
| 2026-04-18 10:13 | 50.99852 | -1.02989 | 17063 ft | 355 kts | 256° |
| 2026-04-18 10:14 | 50.99323 | -1.06848 | 17701 ft | 358 kts | 257° |
| 2026-04-18 10:14 | 50.98794 | -1.10724 | 18319 ft | 361 kts | 256° |
| 2026-04-18 10:14 | 50.98259 | -1.14635 | 18884 ft | 364 kts | 256° |
| 2026-04-18 10:14 | 50.97717 | -1.18572 | 19423 ft | 366 kts | 256° |
| 2026-04-18 10:15 | 50.97170 | -1.22522 | 19947 ft | 368 kts | 256° |
| 2026-04-18 10:15 | 50.96613 | -1.26537 | 20458 ft | 370 kts | 256° |
| 2026-04-18 10:15 | 50.96057 | -1.30521 | 20955 ft | 373 kts | 256° |
| 2026-04-18 10:15 | 50.95491 | -1.34558 | 21449 ft | 375 kts | 256° |
| 2026-04-18 10:16 | 50.94955 | -1.38581 | 21919 ft | 377 kts | 257° |
| 2026-04-18 10:16 | 50.94428 | -1.42726 | 22412 ft | 380 kts | 257° |
| 2026-04-18 10:16 | 50.93920 | -1.46773 | 22886 ft | 382 kts | 257° |
| 2026-04-18 10:16 | 50.93390 | -1.50980 | 23379 ft | 384 kts | 257° |
| 2026-04-18 10:17 | 50.92861 | -1.55148 | 23843 ft | 387 kts | 257° |
| 2026-04-18 10:17 | 50.92325 | -1.59345 | 24220 ft | 389 kts | 257° |
| 2026-04-18 10:17 | 50.91784 | -1.63552 | 24612 ft | 391 kts | 257° |
| 2026-04-18 10:17 | 50.91237 | -1.67785 | 24979 ft | 393 kts | 257° |
| 2026-04-18 10:18 | 50.90689 | -1.72011 | 25107 ft | 397 kts | 257° |
| 2026-04-18 10:18 | 50.90134 | -1.76281 | 25218 ft | 395 kts | 257° |
| 2026-04-18 10:18 | 50.89580 | -1.80532 | 25337 ft | 394 kts | 257° |
| 2026-04-18 10:18 | 50.89021 | -1.84800 | 25464 ft | 396 kts | 257° |
| 2026-04-18 10:19 | 50.88462 | -1.89064 | 25580 ft | 396 kts | 257° |
| 2026-04-18 10:19 | 50.87905 | -1.93309 | 25724 ft | 397 kts | 257° |
| 2026-04-18 10:19 | 50.87331 | -1.97651 | 25831 ft | 398 kts | 257° |
| 2026-04-18 10:19 | 50.86762 | -2.01953 | 25965 ft | 399 kts | 257° |
| 2026-04-18 10:20 | 50.86192 | -2.06258 | 26090 ft | 400 kts | 257° |
| 2026-04-18 10:20 | 50.85621 | -2.10569 | 26174 ft | 400 kts | 257° |
| 2026-04-18 10:20 | 50.85049 | -2.14882 | 26223 ft | 400 kts | 257° |
| 2026-04-18 10:20 | 50.84481 | -2.19153 | 26266 ft | 401 kts | 257° |
| 2026-04-18 10:21 | 50.83898 | -2.23519 | 26567 ft | 404 kts | 257° |
| 2026-04-18 10:21 | 50.83316 | -2.27866 | 26967 ft | 404 kts | 256° |
| 2026-04-18 10:21 | 50.82732 | -2.32220 | 27333 ft | 406 kts | 256° |
| 2026-04-18 10:21 | 50.82142 | -2.36605 | 27706 ft | 408 kts | 256° |
| 2026-04-18 10:22 | 50.81550 | -2.40994 | 28057 ft | 410 kts | 256° |
| 2026-04-18 10:22 | 50.80950 | -2.45423 | 28356 ft | 413 kts | 256° |
| 2026-04-18 10:22 | 50.80472 | -2.49905 | 28675 ft | 416 kts | 263° |
| 2026-04-18 10:22 | 50.80416 | -2.54486 | 28984 ft | 421 kts | 269° |
| 2026-04-18 10:23 | 50.80642 | -2.59115 | 29310 ft | 425 kts | 273° |
| 2026-04-18 10:23 | 50.81197 | -2.63734 | 29604 ft | 430 kts | 280° |
| 2026-04-18 10:23 | 50.81982 | -2.68280 | 29870 ft | 433 kts | 281° |
| 2026-04-18 10:23 | 50.82808 | -2.72889 | 30145 ft | 435 kts | 281° |
| 2026-04-18 10:24 | 50.83641 | -2.77500 | 30403 ft | 437 kts | 281° |
| 2026-04-18 10:24 | 50.84472 | -2.82137 | 30618 ft | 438 kts | 281° |
| 2026-04-18 10:24 | 50.85297 | -2.86791 | 30812 ft | 440 kts | 281° |
| 2026-04-18 10:24 | 50.86116 | -2.91465 | 31057 ft | 441 kts | 281° |
| 2026-04-18 10:25 | 50.86929 | -2.96146 | 31342 ft | 440 kts | 281° |
| 2026-04-18 10:25 | 50.87734 | -3.00808 | 31633 ft | 439 kts | 280° |
| 2026-04-18 10:25 | 50.88536 | -3.05476 | 31902 ft | 440 kts | 280° |
| 2026-04-18 10:25 | 50.89328 | -3.10108 | 32162 ft | 440 kts | 280° |
| 2026-04-18 10:26 | 50.90125 | -3.14783 | 32425 ft | 440 kts | 280° |
| 2026-04-18 10:26 | 50.90920 | -3.19457 | 32702 ft | 440 kts | 280° |
| 2026-04-18 10:26 | 50.91714 | -3.24133 | 32986 ft | 439 kts | 280° |
| 2026-04-18 10:26 | 50.92505 | -3.28806 | 33254 ft | 439 kts | 280° |
| 2026-04-18 10:27 | 50.93296 | -3.33497 | 33516 ft | 440 kts | 280° |
| 2026-04-18 10:27 | 50.94086 | -3.38187 | 33793 ft | 439 kts | 279° |
| 2026-04-18 10:27 | 50.94843 | -3.42693 | 34048 ft | 439 kts | 279° |
| 2026-04-18 10:27 | 50.95665 | -3.47604 | 34315 ft | 439 kts | 279° |
| 2026-04-18 10:28 | 50.96446 | -3.52279 | 34539 ft | 439 kts | 279° |
| 2026-04-18 10:28 | 50.97228 | -3.56970 | 34758 ft | 439 kts | 279° |
| 2026-04-18 10:28 | 50.97883 | -3.60919 | 34920 ft | 439 kts | 279° |
| 2026-04-18 10:28 | 50.98677 | -3.65714 | 35117 ft | 440 kts | 279° |
| 2026-04-18 10:29 | 50.99453 | -3.70407 | 35326 ft | 440 kts | 279° |
| 2026-04-18 10:29 | 51.00237 | -3.75168 | 35528 ft | 440 kts | 279° |
| 2026-04-18 10:29 | 51.01010 | -3.79868 | 35722 ft | 440 kts | 279° |
| 2026-04-18 10:29 | 51.01783 | -3.84584 | 35927 ft | 440 kts | 279° |
| 2026-04-18 10:30 | 51.02552 | -3.89291 | 36135 ft | 440 kts | 279° |
| 2026-04-18 10:30 | 51.04092 | -3.98760 | 36273 ft | 445 kts | 279° |
| 2026-04-18 10:31 | 51.05635 | -4.08292 | 36285 ft | 444 kts | 279° |
| 2026-04-18 10:31 | 51.07146 | -4.17666 | 36298 ft | 438 kts | 279° |
| 2026-04-18 10:32 | 51.08646 | -4.27042 | 36291 ft | 437 kts | 279° |
| 2026-04-18 10:32 | 51.10136 | -4.36415 | 36299 ft | 436 kts | 278° |
| 2026-04-18 10:33 | 51.11616 | -4.45777 | 36302 ft | 436 kts | 278° |
| 2026-04-18 10:33 | 51.13091 | -4.55161 | 36300 ft | 437 kts | 278° |
| 2026-04-18 10:34 | 51.14568 | -4.64604 | 36307 ft | 439 kts | 278° |
| 2026-04-18 10:34 | 51.16034 | -4.74037 | 36302 ft | 440 kts | 278° |
| 2026-04-18 10:35 | 51.17498 | -4.83504 | 36309 ft | 441 kts | 278° |
| 2026-04-18 10:35 | 51.18961 | -4.93025 | 36303 ft | 442 kts | 278° |
| 2026-04-18 10:36 | 51.20416 | -5.02551 | 36312 ft | 443 kts | 278° |
| 2026-04-18 10:36 | 51.21864 | -5.12083 | 36304 ft | 443 kts | 277° |
| 2026-04-18 10:37 | 51.23306 | -5.21640 | 36310 ft | 443 kts | 277° |
| 2026-04-18 10:37 | 51.24739 | -5.31186 | 36308 ft | 442 kts | 277° |
| 2026-04-18 10:38 | 51.26163 | -5.40734 | 36313 ft | 442 kts | 277° |
| 2026-04-18 10:38 | 51.27579 | -5.50285 | 36306 ft | 441 kts | 277° |
| 2026-04-18 10:39 | 51.28980 | -5.59797 | 36311 ft | 441 kts | 277° |
| 2026-04-18 10:39 | 51.30382 | -5.69369 | 36309 ft | 440 kts | 277° |
| 2026-04-18 10:40 | 51.31769 | -5.78904 | 36312 ft | 440 kts | 277° |
| 2026-04-18 10:40 | 51.33147 | -5.88429 | 36312 ft | 440 kts | 276° |
| 2026-04-18 10:41 | 51.34517 | -5.97962 | 36318 ft | 440 kts | 276° |
| 2026-04-18 10:41 | 51.35886 | -6.07551 | 36315 ft | 440 kts | 276° |
| 2026-04-18 10:42 | 51.37243 | -6.17113 | 36320 ft | 440 kts | 276° |
| 2026-04-18 10:42 | 51.38588 | -6.26649 | 36319 ft | 440 kts | 276° |
| 2026-04-18 10:43 | 51.39930 | -6.36231 | 36322 ft | 441 kts | 276° |
| 2026-04-18 10:43 | 51.41041 | -6.44207 | 36321 ft | 441 kts | 276° |
| 2026-04-18 10:44 | 51.42379 | -6.53864 | 36321 ft | 441 kts | 276° |
| 2026-04-18 10:44 | 51.43703 | -6.63494 | 36323 ft | 441 kts | 276° |
| 2026-04-18 10:45 | 51.45013 | -6.73076 | 36323 ft | 442 kts | 276° |
| 2026-04-18 10:45 | 51.46320 | -6.82703 | 36324 ft | 442 kts | 276° |
| 2026-04-18 10:46 | 51.47619 | -6.92323 | 36324 ft | 442 kts | 276° |
| 2026-04-18 10:46 | 51.48916 | -7.01968 | 36322 ft | 443 kts | 277° |
| 2026-04-18 10:47 | 51.50917 | -7.11439 | 36333 ft | 452 kts | 286° |
| 2026-04-18 10:47 | 51.53857 | -7.20456 | 36340 ft | 459 kts | 293° |
| 2026-04-18 10:48 | 51.57134 | -7.29268 | 36322 ft | 460 kts | 294° |
| 2026-04-18 10:48 | 51.60416 | -7.38088 | 36322 ft | 460 kts | 293° |
| 2026-04-18 10:49 | 51.63684 | -7.46986 | 36326 ft | 460 kts | 293° |
| 2026-04-18 10:49 | 51.66943 | -7.55941 | 36323 ft | 461 kts | 293° |
| 2026-04-18 10:50 | 51.70173 | -7.64859 | 36320 ft | 461 kts | 293° |
| 2026-04-18 10:50 | 51.73385 | -7.73760 | 36316 ft | 462 kts | 293° |
| 2026-04-18 10:51 | 51.76670 | -7.82892 | 36311 ft | 462 kts | 293° |
| 2026-04-18 10:51 | 51.79888 | -7.91870 | 36315 ft | 463 kts | 293° |
| 2026-04-18 10:52 | 51.83108 | -8.00881 | 36312 ft | 463 kts | 293° |
| 2026-04-18 10:52 | 51.86354 | -8.09999 | 36307 ft | 463 kts | 293° |
| 2026-04-18 10:53 | 51.89563 | -8.19050 | 36313 ft | 464 kts | 293° |
| 2026-04-18 10:53 | 51.92785 | -8.28166 | 36323 ft | 464 kts | 293° |
| 2026-04-18 10:54 | 51.95984 | -8.37253 | 36323 ft | 465 kts | 293° |
| 2026-04-18 10:54 | 51.99186 | -8.46377 | 36325 ft | 465 kts | 293° |
| 2026-04-18 10:55 | 52.02336 | -8.55388 | 36322 ft | 465 kts | 293° |
| 2026-04-18 10:55 | 52.05550 | -8.64617 | 36311 ft | 466 kts | 293° |
| 2026-04-18 10:56 | 52.08734 | -8.73791 | 36310 ft | 466 kts | 293° |
| 2026-04-18 10:56 | 52.11910 | -8.82977 | 36313 ft | 466 kts | 292° |
| 2026-04-18 10:57 | 52.15081 | -8.92181 | 36324 ft | 466 kts | 292° |
| 2026-04-18 10:57 | 52.18233 | -9.01364 | 36328 ft | 466 kts | 292° |
| 2026-04-18 10:58 | 52.21389 | -9.10595 | 36328 ft | 467 kts | 292° |
| 2026-04-18 10:58 | 52.24546 | -9.19860 | 36330 ft | 467 kts | 292° |
| 2026-04-18 10:59 | 52.27735 | -9.29258 | 36326 ft | 467 kts | 292° |
| 2026-04-18 10:59 | 52.30881 | -9.38560 | 36330 ft | 467 kts | 292° |
| 2026-04-18 11:00 | 52.34015 | -9.47865 | 36336 ft | 468 kts | 292° |
| 2026-04-18 11:00 | 52.37154 | -9.57217 | 36337 ft | 469 kts | 292° |
| 2026-04-18 11:01 | 52.40282 | -9.66571 | 36334 ft | 469 kts | 292° |
| 2026-04-18 11:01 | 52.43409 | -9.75959 | 36326 ft | 469 kts | 292° |
| 2026-04-18 11:02 | 52.48079 | -9.90046 | 36347 ft | 469 kts | 292° |
| 2026-04-18 11:02 | 52.51175 | -9.99429 | 36358 ft | 470 kts | 292° |
| 2026-04-18 11:03 | 52.54278 | -10.08871 | 36356 ft | 470 kts | 292° |
| 2026-04-18 11:03 | 52.57373 | -10.18324 | 36360 ft | 470 kts | 292° |
| 2026-04-18 11:04 | 52.60467 | -10.27811 | 36353 ft | 471 kts | 292° |
| 2026-04-18 11:04 | 52.63553 | -10.37318 | 36358 ft | 471 kts | 292° |
| 2026-04-18 11:05 | 52.66640 | -10.46851 | 36357 ft | 472 kts | 292° |
| 2026-04-18 11:05 | 52.69718 | -10.56394 | 36359 ft | 472 kts | 292° |
| 2026-04-18 11:06 | 52.72787 | -10.65948 | 36351 ft | 472 kts | 292° |
| 2026-04-18 11:06 | 52.75848 | -10.75521 | 36348 ft | 471 kts | 292° |
| 2026-04-18 11:07 | 52.78902 | -10.85104 | 36360 ft | 471 kts | 292° |
| 2026-04-18 11:07 | 52.81943 | -10.94687 | 36358 ft | 471 kts | 292° |
| 2026-04-18 11:08 | 52.84977 | -11.04283 | 36350 ft | 470 kts | 292° |
| 2026-04-18 11:08 | 52.87999 | -11.13883 | 36352 ft | 470 kts | 292° |
| 2026-04-18 11:09 | 52.91014 | -11.23494 | 36350 ft | 470 kts | 292° |
| 2026-04-18 11:09 | 52.94017 | -11.33109 | 36353 ft | 470 kts | 292° |
| 2026-04-18 11:10 | 52.97014 | -11.42741 | 36356 ft | 470 kts | 292° |
| 2026-04-18 11:10 | 53.00002 | -11.52382 | 36355 ft | 470 kts | 292° |
| 2026-04-18 11:11 | 53.02978 | -11.62024 | 36353 ft | 469 kts | 292° |
| 2026-04-18 11:11 | 53.05951 | -11.71694 | 36349 ft | 469 kts | 292° |
| 2026-04-18 11:12 | 53.08909 | -11.81356 | 36354 ft | 469 kts | 292° |
| 2026-04-18 11:12 | 53.11867 | -11.91052 | 36351 ft | 469 kts | 293° |
| 2026-04-18 11:13 | 53.14316 | -11.99114 | 36351 ft | 469 kts | 293° |
| 2026-04-18 11:13 | 53.17727 | -12.10384 | 36351 ft | 469 kts | 293° |
| 2026-04-18 11:14 | 53.20178 | -12.18515 | 36353 ft | 468 kts | 293° |
| 2026-04-18 11:14 | 53.23565 | -12.29800 | 36348 ft | 468 kts | 293° |
| 2026-04-18 11:15 | 53.25999 | -12.37942 | 36350 ft | 468 kts | 293° |
| 2026-04-18 11:15 | 53.28896 | -12.47669 | 36349 ft | 467 kts | 293° |
| 2026-04-18 11:16 | 53.31761 | -12.57327 | 36353 ft | 467 kts | 293° |
| 2026-04-18 11:16 | 53.34658 | -12.67136 | 36354 ft | 467 kts | 293° |
| 2026-04-18 11:17 | 53.37504 | -12.76809 | 36350 ft | 466 kts | 293° |
| 2026-04-18 11:17 | 53.40360 | -12.86557 | 36353 ft | 466 kts | 293° |
| 2026-04-18 11:18 | 53.43205 | -12.96306 | 36354 ft | 465 kts | 293° |
| 2026-04-18 11:18 | 53.46040 | -13.06062 | 36347 ft | 465 kts | 293° |
| 2026-04-18 11:19 | 53.48866 | -13.15829 | 36350 ft | 465 kts | 293° |
| 2026-04-18 11:19 | 53.51676 | -13.25580 | 36348 ft | 465 kts | 293° |
| 2026-04-18 11:20 | 53.54491 | -13.35386 | 36346 ft | 464 kts | 293° |
| 2026-04-18 11:20 | 53.57287 | -13.45172 | 36347 ft | 464 kts | 293° |
| 2026-04-18 11:21 | 53.60070 | -13.54948 | 36352 ft | 464 kts | 293° |
| 2026-04-18 11:21 | 53.62849 | -13.64757 | 36339 ft | 463 kts | 293° |
| 2026-04-18 11:22 | 53.65613 | -13.74550 | 36343 ft | 463 kts | 293° |
| 2026-04-18 11:22 | 53.68368 | -13.84352 | 36340 ft | 462 kts | 293° |
| 2026-04-18 11:23 | 53.71113 | -13.94159 | 36345 ft | 462 kts | 293° |
| 2026-04-18 11:23 | 53.73847 | -14.03971 | 36340 ft | 462 kts | 293° |
| 2026-04-18 11:24 | 53.76570 | -14.13785 | 36344 ft | 461 kts | 293° |
| 2026-04-18 11:24 | 53.79286 | -14.23613 | 36340 ft | 461 kts | 293° |
| 2026-04-18 11:25 | 53.81993 | -14.33452 | 36344 ft | 461 kts | 293° |
| 2026-04-18 11:25 | 53.84687 | -14.43287 | 36337 ft | 460 kts | 293° |
| 2026-04-18 11:26 | 53.87369 | -14.53119 | 36341 ft | 460 kts | 293° |
| 2026-04-18 11:26 | 53.90044 | -14.62968 | 36336 ft | 460 kts | 293° |
| 2026-04-18 11:27 | 53.92712 | -14.72831 | 36340 ft | 459 kts | 293° |
| 2026-04-18 11:27 | 53.95365 | -14.82679 | 36337 ft | 459 kts | 293° |
| 2026-04-18 11:28 | 53.98002 | -14.92554 | 36337 ft | 458 kts | 291° |
| 2026-04-18 11:28 | 53.99758 | -15.02889 | 36340 ft | 455 kts | 279° |
| 2026-04-18 11:29 | 54.00358 | -15.13609 | 36549 ft | 457 kts | 271° |
| 2026-04-18 11:29 | 54.00450 | -15.18998 | 36766 ft | 456 kts | 271° |
| 2026-04-18 11:29 | 54.00526 | -15.24371 | 36995 ft | 455 kts | 271° |
| 2026-04-18 11:30 | 54.00600 | -15.29756 | 37172 ft | 456 kts | 271° |
| 2026-04-18 11:30 | 54.00679 | -15.35157 | 37253 ft | 458 kts | 271° |
| 2026-04-18 11:30 | 54.00851 | -15.46020 | 37333 ft | 461 kts | 271° |
| 2026-04-18 11:31 | 54.01029 | -15.56883 | 37326 ft | 457 kts | 271° |
| 2026-04-18 11:31 | 54.01198 | -15.67621 | 37325 ft | 453 kts | 271° |
| 2026-04-18 11:32 | 54.01357 | -15.78319 | 37330 ft | 450 kts | 271° |
| 2026-04-18 11:32 | 54.01504 | -15.88943 | 37330 ft | 449 kts | 271° |
| 2026-04-18 11:33 | 54.01641 | -15.99567 | 37064 ft | 449 kts | 273° |
| 2026-04-18 11:33 | 54.01703 | -16.04812 | 37180 ft | 440 kts | 273° |
| 2026-04-18 11:33 | 54.01762 | -16.09903 | 37242 ft | 436 kts | 273° |
| 2026-04-18 11:34 | 54.01880 | -16.20205 | 37337 ft | 436 kts | 273° |
| 2026-04-18 11:34 | 54.01988 | -16.30538 | 37329 ft | 439 kts | 273° |
| 2026-04-18 11:35 | 54.02088 | -16.40943 | 37339 ft | 441 kts | 272° |
| 2026-04-18 11:35 | 54.02178 | -16.51364 | 37330 ft | 442 kts | 272° |
| 2026-04-18 11:36 | 54.02260 | -16.61898 | 37335 ft | 442 kts | 272° |
| 2026-04-18 11:36 | 54.02331 | -16.72277 | 37331 ft | 442 kts | 272° |
| 2026-04-18 11:37 | 54.02394 | -16.82719 | 37332 ft | 441 kts | 272° |
| 2026-04-18 11:37 | 54.02448 | -16.93183 | 37327 ft | 440 kts | 272° |
| 2026-04-18 11:38 | 54.02493 | -17.03584 | 37331 ft | 439 kts | 272° |
| 2026-04-18 11:38 | 54.02529 | -17.13936 | 37325 ft | 438 kts | 272° |
| 2026-04-18 11:39 | 54.02555 | -17.24291 | 37329 ft | 437 kts | 272° |
| 2026-04-18 11:39 | 54.02573 | -17.34612 | 37325 ft | 437 kts | 271° |
| 2026-04-18 11:40 | 54.02583 | -17.44934 | 37327 ft | 436 kts | 271° |
| 2026-04-18 11:40 | 54.02583 | -17.55251 | 37325 ft | 436 kts | 271° |
| 2026-04-18 11:41 | 54.02574 | -17.65570 | 37326 ft | 436 kts | 271° |
| 2026-04-18 11:41 | 54.02557 | -17.75885 | 37320 ft | 436 kts | 271° |
| 2026-04-18 11:42 | 54.02531 | -17.86209 | 37320 ft | 437 kts | 271° |
| 2026-04-18 11:42 | 54.02496 | -17.96469 | 37320 ft | 437 kts | 271° |
| 2026-04-18 11:43 | 54.02451 | -18.06851 | 37317 ft | 437 kts | 271° |
| 2026-04-18 11:43 | 54.02399 | -18.17164 | 37319 ft | 437 kts | 271° |
| 2026-04-18 11:44 | 54.02337 | -18.27489 | 37316 ft | 436 kts | 271° |
| 2026-04-18 11:44 | 54.02266 | -18.37841 | 37314 ft | 436 kts | 271° |
| 2026-04-18 11:45 | 54.02188 | -18.48088 | 37313 ft | 436 kts | 270° |
| 2026-04-18 11:45 | 54.02100 | -18.58383 | 37323 ft | 436 kts | 270° |
| 2026-04-18 11:46 | 54.02003 | -18.68681 | 37308 ft | 435 kts | 270° |
| 2026-04-18 11:46 | 54.01898 | -18.78969 | 37312 ft | 435 kts | 270° |
| 2026-04-18 11:47 | 54.01784 | -18.89244 | 37302 ft | 434 kts | 270° |
| 2026-04-18 11:47 | 54.01661 | -18.99475 | 37317 ft | 434 kts | 270° |
| 2026-04-18 11:48 | 54.01530 | -19.09743 | 37308 ft | 434 kts | 270° |
| 2026-04-18 11:48 | 54.01390 | -19.19997 | 37307 ft | 433 kts | 270° |
| 2026-04-18 11:49 | 54.01242 | -19.30235 | 37306 ft | 433 kts | 270° |
| 2026-04-18 11:49 | 54.01085 | -19.40448 | 37301 ft | 432 kts | 270° |
| 2026-04-18 11:50 | 54.00919 | -19.50667 | 37309 ft | 432 kts | 270° |
| 2026-04-18 11:50 | 54.00746 | -19.60867 | 37298 ft | 431 kts | 269° |
| 2026-04-18 11:51 | 54.00564 | -19.71051 | 37289 ft | 431 kts | 269° |
| 2026-04-18 11:51 | 54.00374 | -19.81200 | 37299 ft | 430 kts | 269° |
| 2026-04-18 11:52 | 54.00177 | -19.91369 | 37287 ft | 429 kts | 269° |
| 2026-04-18 11:52 | 54.00414 | -20.01458 | 37295 ft | 428 kts | 277° |
| 2026-04-18 11:53 | 54.01569 | -20.11374 | 37297 ft | 427 kts | 283° |
| 2026-04-18 11:53 | 54.02994 | -20.21166 | 37291 ft | 427 kts | 283° |
| 2026-04-18 11:54 | 54.04414 | -20.30974 | 37286 ft | 426 kts | 283° |
| 2026-04-18 11:54 | 54.05809 | -20.40774 | 37288 ft | 426 kts | 283° |
| 2026-04-18 11:55 | 54.07178 | -20.50512 | 37277 ft | 426 kts | 283° |
| 2026-04-18 11:55 | 54.08553 | -20.60376 | 37282 ft | 425 kts | 282° |
| 2026-04-18 11:56 | 54.09903 | -20.70120 | 37282 ft | 425 kts | 282° |
| 2026-04-18 11:56 | 54.11252 | -20.79920 | 37276 ft | 424 kts | 282° |
| 2026-04-18 11:57 | 54.12591 | -20.89713 | 37267 ft | 424 kts | 282° |
| 2026-04-18 11:57 | 54.13921 | -20.99500 | 37279 ft | 423 kts | 282° |
| 2026-04-18 11:58 | 54.15239 | -21.09270 | 37272 ft | 423 kts | 282° |
| 2026-04-18 11:58 | 54.16552 | -21.19059 | 37267 ft | 422 kts | 282° |
| 2026-04-18 11:59 | 54.17853 | -21.28829 | 37273 ft | 422 kts | 281° |
| 2026-04-18 11:59 | 54.18927 | -21.36947 | 37256 ft | 422 kts | 281° |
| 2026-04-18 12:00 | 54.20213 | -21.46721 | 37268 ft | 422 kts | 281° |
| 2026-04-18 12:00 | 54.21492 | -21.56509 | 37268 ft | 422 kts | 281° |
| 2026-04-18 12:01 | 54.23391 | -21.71170 | 37256 ft | 422 kts | 281° |
| 2026-04-18 12:02 | 54.24649 | -21.80964 | 37261 ft | 422 kts | 281° |
| 2026-04-18 12:02 | 54.25899 | -21.90769 | 37244 ft | 422 kts | 281° |
| 2026-04-18 12:03 | 54.27142 | -22.00579 | 37241 ft | 422 kts | 280° |
| 2026-04-18 12:03 | 54.28378 | -22.10405 | 37237 ft | 422 kts | 280° |
| 2026-04-18 12:04 | 54.29604 | -22.20228 | 37238 ft | 422 kts | 280° |
| 2026-04-18 12:04 | 54.30823 | -22.30054 | 37250 ft | 422 kts | 280° |
| 2026-04-18 12:05 | 54.32034 | -22.39894 | 37252 ft | 422 kts | 279° |
| 2026-04-18 12:05 | 54.33236 | -22.49728 | 37242 ft | 422 kts | 279° |
| 2026-04-18 12:06 | 54.34429 | -22.59563 | 37233 ft | 422 kts | 279° |
| 2026-04-18 12:06 | 54.35617 | -22.69424 | 37228 ft | 422 kts | 279° |
| 2026-04-18 12:07 | 54.36793 | -22.79264 | 37225 ft | 422 kts | 279° |
| 2026-04-18 12:07 | 54.37964 | -22.89126 | 37223 ft | 422 kts | 279° |
| 2026-04-18 12:08 | 54.39125 | -22.98983 | 37218 ft | 422 kts | 279° |
| 2026-04-18 12:08 | 54.40271 | -23.08783 | 37214 ft | 422 kts | 279° |
| 2026-04-18 12:09 | 54.41416 | -23.18655 | 37214 ft | 422 kts | 278° |
| 2026-04-18 12:09 | 54.42555 | -23.28544 | 37211 ft | 422 kts | 278° |
| 2026-04-18 12:10 | 54.43684 | -23.38423 | 37211 ft | 422 kts | 278° |
| 2026-04-18 12:10 | 54.44807 | -23.48322 | 37205 ft | 422 kts | 278° |
| 2026-04-18 12:11 | 54.45920 | -23.58218 | 37201 ft | 422 kts | 278° |
| 2026-04-18 12:11 | 54.47027 | -23.68126 | 37196 ft | 422 kts | 278° |
| 2026-04-18 12:12 | 54.48124 | -23.78035 | 37195 ft | 422 kts | 278° |
| 2026-04-18 12:12 | 54.49213 | -23.87938 | 37194 ft | 422 kts | 278° |
| 2026-04-18 12:13 | 54.50296 | -23.97876 | 37182 ft | 422 kts | 278° |
| 2026-04-18 12:13 | 54.51370 | -24.07805 | 37186 ft | 422 kts | 278° |
| 2026-04-18 12:14 | 54.52435 | -24.17737 | 37181 ft | 422 kts | 277° |
| 2026-04-18 12:14 | 54.53494 | -24.27692 | 37173 ft | 422 kts | 277° |
| 2026-04-18 12:15 | 54.54545 | -24.37649 | 37171 ft | 423 kts | 277° |
| 2026-04-18 12:15 | 54.55588 | -24.47616 | 37170 ft | 423 kts | 277° |
| 2026-04-18 12:16 | 54.56622 | -24.57584 | 37165 ft | 423 kts | 277° |
| 2026-04-18 12:16 | 54.57651 | -24.67586 | 37158 ft | 423 kts | 277° |
| 2026-04-18 12:17 | 54.58670 | -24.77571 | 37155 ft | 423 kts | 277° |
| 2026-04-18 12:17 | 54.59675 | -24.87511 | 37154 ft | 424 kts | 277° |
| 2026-04-18 12:18 | 54.60679 | -24.97525 | 37148 ft | 424 kts | 277° |
| 2026-04-18 12:18 | 54.61675 | -25.07541 | 37143 ft | 424 kts | 277° |
| 2026-04-18 12:19 | 54.62662 | -25.17563 | 37140 ft | 424 kts | 276° |
| 2026-04-18 12:19 | 54.63641 | -25.27588 | 37137 ft | 424 kts | 276° |
| 2026-04-18 12:20 | 54.64612 | -25.37618 | 37130 ft | 424 kts | 276° |
| 2026-04-18 12:20 | 54.65574 | -25.47650 | 37129 ft | 424 kts | 276° |
| 2026-04-18 12:21 | 54.66528 | -25.57695 | 37123 ft | 423 kts | 276° |
| 2026-04-18 12:21 | 54.67474 | -25.67734 | 37121 ft | 423 kts | 276° |
| 2026-04-18 12:22 | 54.68410 | -25.77773 | 37110 ft | 423 kts | 276° |
| 2026-04-18 12:22 | 54.69340 | -25.87829 | 37107 ft | 423 kts | 276° |
| 2026-04-18 12:23 | 54.70260 | -25.97881 | 37107 ft | 423 kts | 276° |
| 2026-04-18 12:23 | 54.71172 | -26.07941 | 37102 ft | 424 kts | 276° |
| 2026-04-18 12:24 | 54.72077 | -26.18015 | 37096 ft | 424 kts | 275° |
| 2026-04-18 12:24 | 54.72973 | -26.28091 | 37088 ft | 424 kts | 275° |
| 2026-04-18 12:25 | 54.73860 | -26.38164 | 37088 ft | 424 kts | 275° |
| 2026-04-18 12:25 | 54.74740 | -26.48249 | 37083 ft | 424 kts | 275° |
| 2026-04-18 12:26 | 54.75612 | -26.58349 | 37071 ft | 424 kts | 275° |
| 2026-04-18 12:26 | 54.76475 | -26.68443 | 37069 ft | 424 kts | 275° |
| 2026-04-18 12:27 | 54.77308 | -26.78292 | 37060 ft | 424 kts | 275° |
| 2026-04-18 12:27 | 54.78154 | -26.88389 | 37057 ft | 424 kts | 275° |
| 2026-04-18 12:28 | 54.78991 | -26.98481 | 37051 ft | 423 kts | 275° |
| 2026-04-18 12:28 | 54.79820 | -27.08588 | 37044 ft | 423 kts | 275° |
| 2026-04-18 12:29 | 54.80639 | -27.18680 | 37036 ft | 423 kts | 275° |
| 2026-04-18 12:29 | 54.81450 | -27.28782 | 37030 ft | 423 kts | 274° |
| 2026-04-18 12:30 | 54.82253 | -27.38888 | 37026 ft | 423 kts | 274° |
| 2026-04-18 12:30 | 54.83048 | -27.48995 | 37017 ft | 423 kts | 274° |
| 2026-04-18 12:31 | 54.83833 | -27.59102 | 37013 ft | 423 kts | 274° |
| 2026-04-18 12:31 | 54.84610 | -27.69205 | 37006 ft | 423 kts | 274° |
| 2026-04-18 12:32 | 54.85379 | -27.79327 | 37006 ft | 423 kts | 274° |
| 2026-04-18 12:32 | 54.86139 | -27.89437 | 36978 ft | 423 kts | 274° |
| 2026-04-18 12:33 | 54.86890 | -27.99549 | 36978 ft | 423 kts | 274° |
| 2026-04-18 12:33 | 54.87634 | -28.09680 | 36988 ft | 423 kts | 274° |
| 2026-04-18 12:34 | 54.88368 | -28.19802 | 36971 ft | 423 kts | 273° |
| 2026-04-18 12:34 | 54.89095 | -28.29940 | 36966 ft | 423 kts | 273° |
| 2026-04-18 12:35 | 54.89813 | -28.40073 | 36957 ft | 423 kts | 273° |
| 2026-04-18 12:35 | 54.90523 | -28.50211 | 36953 ft | 423 kts | 273° |
| 2026-04-18 12:36 | 54.91224 | -28.60354 | 36942 ft | 423 kts | 273° |
| 2026-04-18 12:36 | 54.91917 | -28.70495 | 36941 ft | 423 kts | 273° |
| 2026-04-18 12:37 | 54.92600 | -28.80627 | 36929 ft | 422 kts | 272° |
| 2026-04-18 12:37 | 54.93276 | -28.90789 | 36920 ft | 422 kts | 272° |
| 2026-04-18 12:38 | 54.93943 | -29.00933 | 36909 ft | 422 kts | 272° |
| 2026-04-18 12:38 | 54.94602 | -29.11085 | 36905 ft | 422 kts | 272° |
| 2026-04-18 12:39 | 54.95251 | -29.21238 | 36899 ft | 422 kts | 272° |
| 2026-04-18 12:39 | 54.95889 | -29.31330 | 36891 ft | 422 kts | 272° |
| 2026-04-18 12:40 | 54.96526 | -29.41555 | 36882 ft | 423 kts | 272° |
| 2026-04-18 12:40 | 54.97152 | -29.51747 | 36873 ft | 423 kts | 271° |
| 2026-04-18 12:41 | 54.97770 | -29.61941 | 36867 ft | 424 kts | 271° |
| 2026-04-18 12:41 | 54.98376 | -29.72079 | 36848 ft | 424 kts | 271° |
| 2026-04-18 12:42 | 54.98978 | -29.82299 | 36850 ft | 425 kts | 271° |
| 2026-04-18 12:42 | 54.99396 | -29.89471 | 36847 ft | 425 kts | 271° |
| 2026-04-18 12:43 | 54.99984 | -29.99706 | 36840 ft | 425 kts | 271° |
| 2026-04-18 12:43 | 55.00456 | -30.09978 | 36830 ft | 425 kts | 269° |
| 2026-04-18 12:44 | 55.00841 | -30.20248 | 36818 ft | 425 kts | 269° |
| 2026-04-18 12:44 | 55.01222 | -30.30534 | 36815 ft | 426 kts | 269° |
| 2026-04-18 12:45 | 55.01608 | -30.40842 | 36806 ft | 426 kts | 269° |
| 2026-04-18 12:45 | 55.01991 | -30.51153 | 36796 ft | 427 kts | 269° |
| 2026-04-18 12:46 | 55.02369 | -30.61493 | 36790 ft | 427 kts | 269° |
| 2026-04-18 12:46 | 55.02677 | -30.70144 | 36780 ft | 427 kts | 269° |
| 2026-04-18 12:47 | 55.03039 | -30.80491 | 36773 ft | 428 kts | 269° |
| 2026-04-18 12:47 | 55.03391 | -30.90839 | 36765 ft | 428 kts | 268° |
| 2026-04-18 12:48 | 55.03734 | -31.01180 | 36751 ft | 427 kts | 268° |
| 2026-04-18 12:48 | 55.04069 | -31.11531 | 36744 ft | 427 kts | 268° |
| 2026-04-18 12:49 | 55.04393 | -31.21847 | 36733 ft | 426 kts | 268° |
| 2026-04-18 12:49 | 55.04709 | -31.32157 | 36725 ft | 425 kts | 268° |
| 2026-04-18 12:50 | 55.05013 | -31.42387 | 36719 ft | 425 kts | 268° |
| 2026-04-18 12:50 | 55.05311 | -31.52679 | 36704 ft | 425 kts | 268° |
| 2026-04-18 12:51 | 55.05600 | -31.62973 | 36696 ft | 425 kts | 268° |
| 2026-04-18 12:51 | 55.05880 | -31.73268 | 36688 ft | 425 kts | 268° |
| 2026-04-18 12:52 | 55.06151 | -31.83563 | 36683 ft | 425 kts | 267° |
| 2026-04-18 12:52 | 55.06414 | -31.93863 | 36668 ft | 425 kts | 267° |
| 2026-04-18 12:53 | 55.06669 | -32.04173 | 36654 ft | 426 kts | 267° |
| 2026-04-18 12:53 | 55.06915 | -32.14504 | 36642 ft | 426 kts | 267° |
| 2026-04-18 12:54 | 55.07152 | -32.24831 | 36633 ft | 426 kts | 267° |
| 2026-04-18 12:54 | 55.07381 | -32.35179 | 36622 ft | 427 kts | 267° |
| 2026-04-18 12:55 | 55.07602 | -32.45532 | 36610 ft | 427 kts | 266° |
| 2026-04-18 12:55 | 55.07814 | -32.55896 | 36599 ft | 427 kts | 266° |
| 2026-04-18 12:56 | 55.08017 | -32.66265 | 36588 ft | 427 kts | 266° |
| 2026-04-18 12:56 | 55.08211 | -32.76624 | 36576 ft | 427 kts | 266° |
| 2026-04-18 12:57 | 55.08396 | -32.86991 | 36558 ft | 427 kts | 266° |
| 2026-04-18 12:57 | 55.08573 | -32.97369 | 36545 ft | 427 kts | 266° |
| 2026-04-18 12:58 | 55.08740 | -33.07719 | 36540 ft | 427 kts | 266° |
| 2026-04-18 12:58 | 55.08899 | -33.18067 | 36519 ft | 426 kts | 266° |
| 2026-04-18 12:59 | 55.09049 | -33.28411 | 36509 ft | 426 kts | 265° |
| 2026-04-18 12:59 | 55.09190 | -33.38748 | 36500 ft | 426 kts | 265° |
| 2026-04-18 13:00 | 55.09323 | -33.49084 | 36491 ft | 426 kts | 265° |
| 2026-04-18 13:00 | 55.09446 | -33.59430 | 36468 ft | 426 kts | 265° |
| 2026-04-18 13:01 | 55.09561 | -33.69772 | 36471 ft | 426 kts | 265° |
| 2026-04-18 13:01 | 55.09666 | -33.80130 | 36449 ft | 427 kts | 265° |
| 2026-04-18 13:02 | 55.09764 | -33.90503 | 36442 ft | 428 kts | 265° |
| 2026-04-18 13:02 | 55.09852 | -34.00907 | 36428 ft | 429 kts | 264° |
| 2026-04-18 13:03 | 55.09933 | -34.11329 | 36424 ft | 429 kts | 264° |
| 2026-04-18 13:03 | 55.10036 | -34.26980 | 36406 ft | 431 kts | 264° |
| 2026-04-18 13:04 | 55.10094 | -34.37365 | 36395 ft | 431 kts | 264° |
| 2026-04-18 13:04 | 55.10144 | -34.47934 | 36382 ft | 432 kts | 264° |
| 2026-04-18 13:05 | 55.10184 | -34.58423 | 36376 ft | 432 kts | 264° |
| 2026-04-18 13:05 | 55.10215 | -34.68928 | 36366 ft | 433 kts | 264° |
| 2026-04-18 13:06 | 55.10238 | -34.79444 | 36354 ft | 433 kts | 264° |
| 2026-04-18 13:06 | 55.10251 | -34.89950 | 36347 ft | 433 kts | 264° |
| 2026-04-18 13:07 | 55.10255 | -35.00478 | 36343 ft | 433 kts | 264° |
| 2026-04-18 13:07 | 55.10250 | -35.10999 | 36330 ft | 434 kts | 263° |
| 2026-04-18 13:08 | 55.10236 | -35.21534 | 36321 ft | 434 kts | 263° |
| 2026-04-18 13:08 | 55.10213 | -35.32069 | 36313 ft | 434 kts | 263° |
| 2026-04-18 13:09 | 55.10181 | -35.42609 | 36311 ft | 434 kts | 263° |
| 2026-04-18 13:09 | 55.10140 | -35.53141 | 36301 ft | 434 kts | 263° |
| 2026-04-18 13:10 | 55.10089 | -35.63694 | 36290 ft | 435 kts | 262° |
| 2026-04-18 13:10 | 55.10029 | -35.74249 | 36280 ft | 435 kts | 262° |
| 2026-04-18 13:11 | 55.09960 | -35.84827 | 36276 ft | 436 kts | 262° |
| 2026-04-18 13:11 | 55.09882 | -35.95408 | 36265 ft | 436 kts | 262° |
| 2026-04-18 13:12 | 55.09794 | -36.06016 | 36256 ft | 437 kts | 262° |
| 2026-04-18 13:12 | 55.09697 | -36.16640 | 36252 ft | 438 kts | 262° |
| 2026-04-18 13:13 | 55.09591 | -36.27286 | 36245 ft | 439 kts | 262° |
| 2026-04-18 13:13 | 55.09475 | -36.37967 | 36234 ft | 440 kts | 262° |
| 2026-04-18 13:14 | 55.09349 | -36.48659 | 36241 ft | 441 kts | 262° |
| 2026-04-18 13:14 | 55.09214 | -36.59374 | 36221 ft | 442 kts | 262° |
| 2026-04-18 13:15 | 55.09069 | -36.70106 | 36227 ft | 443 kts | 262° |
| 2026-04-18 13:15 | 55.08914 | -36.80871 | 36206 ft | 444 kts | 261° |
| 2026-04-18 13:16 | 55.08750 | -36.91651 | 36204 ft | 444 kts | 261° |
| 2026-04-18 13:16 | 55.08577 | -37.02400 | 36209 ft | 444 kts | 261° |
| 2026-04-18 13:17 | 55.08395 | -37.13104 | 36202 ft | 444 kts | 261° |
| 2026-04-18 13:17 | 55.08202 | -37.23876 | 36206 ft | 444 kts | 261° |
| 2026-04-18 13:18 | 55.07999 | -37.34642 | 36198 ft | 444 kts | 261° |
| 2026-04-18 13:18 | 55.07786 | -37.45411 | 36204 ft | 444 kts | 261° |
| 2026-04-18 13:19 | 55.07564 | -37.56184 | 36207 ft | 445 kts | 261° |
| 2026-04-18 13:19 | 55.07333 | -37.66978 | 36207 ft | 445 kts | 261° |
| 2026-04-18 13:20 | 55.07092 | -37.77783 | 36209 ft | 446 kts | 261° |
| 2026-04-18 13:20 | 55.06841 | -37.88582 | 36222 ft | 446 kts | 261° |
| 2026-04-18 13:21 | 55.06580 | -37.99418 | 36231 ft | 447 kts | 261° |
| 2026-04-18 13:21 | 55.06309 | -38.10260 | 36238 ft | 448 kts | 261° |
| 2026-04-18 13:22 | 55.06028 | -38.21110 | 36252 ft | 448 kts | 261° |
| 2026-04-18 13:22 | 55.05737 | -38.31979 | 36260 ft | 449 kts | 261° |
| 2026-04-18 13:23 | 55.05436 | -38.42857 | 36276 ft | 449 kts | 261° |
| 2026-04-18 13:23 | 55.05125 | -38.53747 | 36288 ft | 450 kts | 261° |
| 2026-04-18 13:24 | 55.04803 | -38.64645 | 36305 ft | 450 kts | 261° |
| 2026-04-18 13:24 | 55.04474 | -38.75530 | 36314 ft | 450 kts | 261° |
| 2026-04-18 13:25 | 55.04133 | -38.86421 | 36322 ft | 450 kts | 261° |
| 2026-04-18 13:25 | 55.03783 | -38.97298 | 36338 ft | 449 kts | 261° |
| 2026-04-18 13:26 | 55.03424 | -39.08174 | 36346 ft | 449 kts | 261° |
| 2026-04-18 13:26 | 55.03055 | -39.19038 | 36355 ft | 449 kts | 261° |
| 2026-04-18 13:27 | 55.02676 | -39.29882 | 36362 ft | 449 kts | 261° |
| 2026-04-18 13:27 | 55.02289 | -39.40739 | 36381 ft | 448 kts | 261° |
| 2026-04-18 13:28 | 55.01895 | -39.51491 | 36383 ft | 448 kts | 261° |
| 2026-04-18 13:28 | 55.01486 | -39.62355 | 36397 ft | 450 kts | 261° |
| 2026-04-18 13:29 | 55.01134 | -39.71518 | 36420 ft | 454 kts | 261° |
| 2026-04-18 13:29 | 55.00632 | -39.84362 | 36430 ft | 460 kts | 261° |
| 2026-04-18 13:30 | 55.00179 | -39.95544 | 36428 ft | 462 kts | 260° |
| 2026-04-18 13:30 | 54.99104 | -40.06404 | 36434 ft | 452 kts | 251° |
| 2026-04-18 13:31 | 54.97724 | -40.15290 | 36450 ft | 456 kts | 251° |
| 2026-04-18 13:31 | 54.96063 | -40.25959 | 36448 ft | 456 kts | 251° |
| 2026-04-18 13:32 | 54.94415 | -40.36625 | 36462 ft | 457 kts | 251° |
| 2026-04-18 13:32 | 54.92762 | -40.47324 | 36475 ft | 460 kts | 251° |
| 2026-04-18 13:33 | 54.91115 | -40.57938 | 36477 ft | 455 kts | 251° |